sensor_id;sensor_type;location;lat;lon;timestamp;pressure;altitude;pressure_sealevel;temperature;humidity
48089;BME280;33867;50.314;7.802;2023-01-04T00:54:21;101392.28;;;4.51;92.69
48089;BME280;33867;50.314;7.802;2023-01-04T00:57:40;101383.41;;;4.51;94.22
48089;BME280;33867;50.314;7.802;2023-01-04T01:01:06;101380.78;;;4.66;93.01
48089;BME280;33867;50.314;7.802;2023-01-04T01:04:25;101363.78;;;4.85;90.69
48089;BME280;33867;50.314;7.802;2023-01-04T01:07:44;101356.78;;;4.99;89.92
48089;BME280;33867;50.314;7.802;2023-01-04T01:11:06;101353.47;;;4.79;90.80
48089;BME280;33867;50.314;7.802;2023-01-04T01:14:25;101351.28;;;4.69;91.59
48089;BME280;33867;50.314;7.802;2023-01-04T01:17:44;101331.22;;;4.62;92.21
48089;BME280;33867;50.314;7.802;2023-01-04T01:21:05;101331.91;;;4.66;93.26
48089;BME280;33867;50.314;7.802;2023-01-04T01:24:25;101326.88;;;4.77;92.52
48089;BME280;33867;50.314;7.802;2023-01-04T01:27:44;101322.38;;;4.62;95.04
48089;BME280;33867;50.314;7.802;2023-01-04T01:31:07;101316.38;;;4.74;93.85
48089;BME280;33867;50.314;7.802;2023-01-04T01:34:27;101311.25;;;4.69;94.74
48089;BME280;33867;50.314;7.802;2023-01-04T02:05:54;101291.84;;;5.46;90.98
48089;BME280;33867;50.314;7.802;2023-01-04T02:45:27;101242.53;;;6.12;89.70
48089;BME280;33867;50.314;7.802;2023-01-04T03:13:26;101199.56;;;6.01;92.40
48089;BME280;33867;50.314;7.802;2023-01-04T04:35:17;101073.25;;;6.80;88.23
48089;BME280;33867;50.314;7.802;2023-01-04T04:38:36;101069.16;;;6.74;87.49
48089;BME280;33867;50.314;7.802;2023-01-04T04:41:55;101070.94;;;6.88;88.25
48089;BME280;33867;50.314;7.802;2023-01-04T04:45:15;101057.47;;;7.02;86.50
48089;BME280;33867;50.314;7.802;2023-01-04T04:52:04;101055.19;;;6.96;87.77
48089;BME280;33867;50.314;7.802;2023-01-04T04:55:23;101050.19;;;7.04;88.41
48089;BME280;33867;50.314;7.802;2023-01-04T04:58:42;101049.72;;;6.97;84.57
48089;BME280;33867;50.314;7.802;2023-01-04T05:02:01;101048.16;;;7.08;85.34
48089;BME280;33867;50.314;7.802;2023-01-04T05:05:20;101038.13;;;7.11;87.25
48089;BME280;33867;50.314;7.802;2023-01-04T06:06:47;100993.09;;;7.54;86.11
48089;BME280;33867;50.314;7.802;2023-01-04T06:10:08;100993.22;;;7.53;86.76
48089;BME280;33867;50.314;7.802;2023-01-04T06:13:28;100996.00;;;7.64;87.15
48089;BME280;33867;50.314;7.802;2023-01-04T07:30:38;100938.88;;;8.48;84.64
48089;BME280;33867;50.314;7.802;2023-01-04T07:33:57;100938.03;;;8.47;84.02
48089;BME280;33867;50.314;7.802;2023-01-04T07:40:52;100930.50;;;8.53;83.98
48089;BME280;33867;50.314;7.802;2023-01-04T07:44:11;100939.00;;;8.46;84.95
48089;BME280;33867;50.314;7.802;2023-01-04T07:47:31;100933.88;;;8.43;84.53
48089;BME280;33867;50.314;7.802;2023-01-04T07:50:50;100921.31;;;8.44;83.91
48089;BME280;33867;50.314;7.802;2023-01-04T07:54:10;100937.72;;;8.63;83.83
48089;BME280;33867;50.314;7.802;2023-01-04T08:33:50;100939.38;;;8.77;84.03
48089;BME280;33867;50.314;7.802;2023-01-04T08:44:11;100915.44;;;8.85;84.32
48089;BME280;33867;50.314;7.802;2023-01-04T08:47:31;100917.50;;;8.82;83.94
48089;BME280;33867;50.314;7.802;2023-01-04T08:50:50;100917.28;;;8.85;84.58
48089;BME280;33867;50.314;7.802;2023-01-04T08:54:10;100922.31;;;8.89;83.86
48089;BME280;33867;50.314;7.802;2023-01-04T09:08:02;100923.94;;;8.68;84.13
48089;BME280;33867;50.314;7.802;2023-01-04T09:11:22;100917.41;;;8.94;84.27
48089;BME280;33867;50.314;7.802;2023-01-04T09:14:41;100917.19;;;9.08;84.41
48089;BME280;33867;50.314;7.802;2023-01-04T09:18:00;100910.50;;;9.14;84.04
48089;BME280;33867;50.314;7.802;2023-01-04T09:21:20;100907.81;;;9.14;84.26
48089;BME280;33867;50.314;7.802;2023-01-04T09:24:39;100888.63;;;9.19;83.75
48089;BME280;33867;50.314;7.802;2023-01-04T09:38:33;100906.31;;;9.66;82.84
48089;BME280;33867;50.314;7.802;2023-01-04T09:41:58;100898.09;;;9.79;82.11
48089;BME280;33867;50.314;7.802;2023-01-04T09:45:22;100910.94;;;9.86;82.60
48089;BME280;33867;50.314;7.802;2023-01-04T09:48:43;100901.88;;;9.87;81.83
48089;BME280;33867;50.314;7.802;2023-01-04T09:55:35;100903.81;;;9.96;81.21
48089;BME280;33867;50.314;7.802;2023-01-04T09:58:56;100914.44;;;9.98;81.25
48089;BME280;33867;50.314;7.802;2023-01-04T10:02:28;100912.94;;;10.05;81.54
48089;BME280;33867;50.314;7.802;2023-01-04T10:05:48;100905.63;;;10.07;80.54
48089;BME280;33867;50.314;7.802;2023-01-04T10:21:00;100892.38;;;10.27;80.85
48089;BME280;33867;50.314;7.802;2023-01-04T10:24:45;100869.94;;;10.37;79.90
48089;BME280;33867;50.314;7.802;2023-01-04T10:31:59;100854.56;;;10.49;79.67
48089;BME280;33867;50.314;7.802;2023-01-04T10:35:23;100855.94;;;10.64;79.33
48089;BME280;33867;50.314;7.802;2023-01-04T11:14:16;100786.13;;;11.03;77.66
48089;BME280;33867;50.314;7.802;2023-01-04T12:08:34;100759.28;;;10.61;81.74
48089;BME280;33867;50.314;7.802;2023-01-04T12:12:00;100752.38;;;10.68;81.57
48089;BME280;33867;50.314;7.802;2023-01-04T12:59:12;100688.06;;;10.84;79.94
48089;BME280;33867;50.314;7.802;2023-01-04T13:06:04;100681.16;;;10.92;79.92
48089;BME280;33867;50.314;7.802;2023-01-04T13:09:23;100696.47;;;10.91;80.16
48089;BME280;33867;50.314;7.802;2023-01-04T13:16:30;100674.31;;;10.88;80.37
48089;BME280;33867;50.314;7.802;2023-01-04T13:19:52;100690.22;;;10.91;80.26
48089;BME280;33867;50.314;7.802;2023-01-04T13:23:12;100674.19;;;10.89;80.33
48089;BME280;33867;50.314;7.802;2023-01-04T13:26:36;100678.19;;;10.95;80.09
48089;BME280;33867;50.314;7.802;2023-01-04T13:29:58;100682.84;;;10.93;80.00
48089;BME280;33867;50.314;7.802;2023-01-04T13:33:21;100662.31;;;10.92;80.07
48089;BME280;33867;50.314;7.802;2023-01-04T13:40:31;100659.03;;;10.98;79.77
48089;BME280;33867;50.314;7.802;2023-01-04T13:44:06;100650.81;;;10.99;80.36
48089;BME280;33867;50.314;7.802;2023-01-04T13:47:36;100673.22;;;11.00;80.28
48089;BME280;33867;50.314;7.802;2023-01-04T13:51:23;100658.31;;;10.96;80.42
48089;BME280;33867;50.314;7.802;2023-01-04T13:54:43;100647.72;;;11.04;80.19
48089;BME280;33867;50.314;7.802;2023-01-04T13:58:15;100646.28;;;11.00;80.20
48089;BME280;33867;50.314;7.802;2023-01-04T14:01:43;100632.78;;;11.00;79.83
48089;BME280;33867;50.314;7.802;2023-01-04T14:05:03;100644.88;;;11.05;80.35
48089;BME280;33867;50.314;7.802;2023-01-04T14:08:30;100643.03;;;11.06;80.22
48089;BME280;33867;50.314;7.802;2023-01-04T14:11:54;100640.63;;;11.03;79.96
48089;BME280;33867;50.314;7.802;2023-01-04T14:15:20;100646.72;;;11.05;80.12
48089;BME280;33867;50.314;7.802;2023-01-04T14:18:40;100638.91;;;11.11;80.51
48089;BME280;33867;50.314;7.802;2023-01-04T14:21:59;100630.25;;;11.08;80.32
48089;BME280;33867;50.314;7.802;2023-01-04T14:28:56;100634.94;;;11.06;80.01
48089;BME280;33867;50.314;7.802;2023-01-04T14:32:15;100612.94;;;11.01;80.40
48089;BME280;33867;50.314;7.802;2023-01-04T14:35:34;100639.63;;;11.04;80.45
48089;BME280;33867;50.314;7.802;2023-01-04T14:38:57;100624.31;;;11.04;80.68
48089;BME280;33867;50.314;7.802;2023-01-04T14:42:26;100626.16;;;11.04;80.77
48089;BME280;33867;50.314;7.802;2023-01-04T14:45:45;100633.78;;;10.99;81.41
48089;BME280;33867;50.314;7.802;2023-01-04T14:49:04;100603.44;;;10.97;80.88
48089;BME280;33867;50.314;7.802;2023-01-04T14:52:23;100622.59;;;10.94;81.45
48089;BME280;33867;50.314;7.802;2023-01-04T14:55:43;100615.91;;;10.88;81.32
48089;BME280;33867;50.314;7.802;2023-01-04T14:59:02;100614.50;;;10.84;81.47
48089;BME280;33867;50.314;7.802;2023-01-04T15:02:21;100609.97;;;10.84;81.60
48089;BME280;33867;50.314;7.802;2023-01-04T15:05:44;100613.94;;;10.80;81.74
48089;BME280;33867;50.314;7.802;2023-01-04T15:12:41;100615.78;;;10.80;81.52
48089;BME280;33867;50.314;7.802;2023-01-04T15:16:00;100625.00;;;10.77;81.84
48089;BME280;33867;50.314;7.802;2023-01-04T15:19:19;100620.31;;;10.79;82.02
48089;BME280;33867;50.314;7.802;2023-01-04T15:22:39;100609.78;;;10.76;81.92
48089;BME280;33867;50.314;7.802;2023-01-04T15:25:58;100614.22;;;10.77;82.24
48089;BME280;33867;50.314;7.802;2023-01-04T15:29:19;100585.13;;;10.71;82.31
48089;BME280;33867;50.314;7.802;2023-01-04T15:32:38;100605.13;;;10.69;82.72
48089;BME280;33867;50.314;7.802;2023-01-04T15:35:59;100610.63;;;10.67;82.56
48089;BME280;33867;50.314;7.802;2023-01-04T15:39:18;100613.06;;;10.70;82.89
48089;BME280;33867;50.314;7.802;2023-01-04T15:42:37;100596.31;;;10.67;82.72
48089;BME280;33867;50.314;7.802;2023-01-04T15:46:15;100590.09;;;10.66;83.09
48089;BME280;33867;50.314;7.802;2023-01-04T15:49:34;100588.34;;;10.65;82.81
48089;BME280;33867;50.314;7.802;2023-01-04T15:52:53;100585.56;;;10.67;83.10
48089;BME280;33867;50.314;7.802;2023-01-04T15:56:13;100589.34;;;10.64;82.89
48089;BME280;33867;50.314;7.802;2023-01-04T15:59:33;100575.03;;;10.64;83.12
48089;BME280;33867;50.314;7.802;2023-01-04T16:02:52;100590.34;;;10.63;83.32
48089;BME280;33867;50.314;7.802;2023-01-04T16:06:13;100580.41;;;10.64;83.09
48089;BME280;33867;50.314;7.802;2023-01-04T16:09:32;100573.09;;;10.66;83.39
48089;BME280;33867;50.314;7.802;2023-01-04T16:12:52;100558.03;;;10.63;83.35
48089;BME280;33867;50.314;7.802;2023-01-04T16:16:11;100560.72;;;10.63;83.61
48089;BME280;33867;50.314;7.802;2023-01-04T16:19:30;100554.34;;;10.64;83.38
48089;BME280;33867;50.314;7.802;2023-01-04T16:22:50;100565.97;;;10.65;83.54
48089;BME280;33867;50.314;7.802;2023-01-04T16:33:26;100553.50;;;10.64;83.67
48089;BME280;33867;50.314;7.802;2023-01-04T16:36:47;100569.41;;;10.67;83.85
48089;BME280;33867;50.314;7.802;2023-01-04T16:40:07;100551.53;;;10.66;83.58
48089;BME280;33867;50.314;7.802;2023-01-04T16:43:28;100548.69;;;10.67;83.82
48089;BME280;33867;50.314;7.802;2023-01-04T16:46:47;100549.13;;;10.72;83.50
48089;BME280;33867;50.314;7.802;2023-01-04T16:50:06;100561.59;;;10.73;83.62
48089;BME280;33867;50.314;7.802;2023-01-04T16:53:25;100555.50;;;10.71;84.28
48089;BME280;33867;50.314;7.802;2023-01-04T16:56:46;100551.81;;;10.72;84.26
48089;BME280;33867;50.314;7.802;2023-01-04T17:00:09;100566.97;;;10.73;84.32
48089;BME280;33867;50.314;7.802;2023-01-04T17:03:28;100573.06;;;10.75;84.49
48089;BME280;33867;50.314;7.802;2023-01-04T17:06:47;100553.22;;;10.76;84.89
48089;BME280;33867;50.314;7.802;2023-01-04T17:10:07;100558.63;;;10.76;85.21
48089;BME280;33867;50.314;7.802;2023-01-04T17:13:26;100551.53;;;10.75;85.51
48089;BME280;33867;50.314;7.802;2023-01-04T17:16:45;100568.53;;;10.76;85.57
48089;BME280;33867;50.314;7.802;2023-01-04T17:20:05;100544.19;;;10.77;85.83
48089;BME280;33867;50.314;7.802;2023-01-04T17:23:25;100553.97;;;10.78;85.59
48089;BME280;33867;50.314;7.802;2023-01-04T17:26:44;100569.13;;;10.79;86.40
48089;BME280;33867;50.314;7.802;2023-01-04T17:30:04;100558.63;;;10.76;86.36
48089;BME280;33867;50.314;7.802;2023-01-04T17:33:23;100575.63;;;10.77;86.93
48089;BME280;33867;50.314;7.802;2023-01-04T17:40:12;100572.06;;;10.76;87.46
48089;BME280;33867;50.314;7.802;2023-01-04T17:43:31;100550.69;;;10.75;87.08
48089;BME280;33867;50.314;7.802;2023-01-04T17:46:51;100554.09;;;10.67;87.29
48089;BME280;33867;50.314;7.802;2023-01-04T17:50:10;100538.19;;;10.64;87.58
48089;BME280;33867;50.314;7.802;2023-01-04T17:53:29;100561.72;;;10.62;87.22
48089;BME280;33867;50.314;7.802;2023-01-04T17:56:48;100551.78;;;10.63;87.80
48089;BME280;33867;50.314;7.802;2023-01-04T18:00:08;100535.50;;;10.64;88.07
48089;BME280;33867;50.314;7.802;2023-01-04T18:03:27;100533.25;;;10.69;87.78
48089;BME280;33867;50.314;7.802;2023-01-04T18:06:47;100529.41;;;10.72;87.50
48089;BME280;33867;50.314;7.802;2023-01-04T18:10:06;100540.59;;;10.77;87.32
48089;BME280;33867;50.314;7.802;2023-01-04T18:13:25;100543.88;;;10.71;86.99
48089;BME280;33867;50.314;7.802;2023-01-04T18:17:04;100545.88;;;10.69;87.59
48089;BME280;33867;50.314;7.802;2023-01-04T18:20:25;100535.38;;;10.75;87.36
48089;BME280;33867;50.314;7.802;2023-01-04T18:23:45;100533.66;;;10.74;87.44
48089;BME280;33867;50.314;7.802;2023-01-04T18:30:50;100536.22;;;10.76;87.59
48089;BME280;33867;50.314;7.802;2023-01-04T18:34:10;100536.09;;;10.77;87.86
48089;BME280;33867;50.314;7.802;2023-01-04T18:37:30;100531.69;;;10.76;87.72
48089;BME280;33867;50.314;7.802;2023-01-04T18:40:50;100526.59;;;10.73;88.48
48089;BME280;33867;50.314;7.802;2023-01-04T18:44:09;100538.22;;;10.74;89.01
48089;BME280;33867;50.314;7.802;2023-01-04T18:47:29;100528.28;;;10.74;89.50
48089;BME280;33867;50.314;7.802;2023-01-04T18:50:48;100532.81;;;10.74;89.30
48089;BME280;33867;50.314;7.802;2023-01-04T18:54:07;100554.78;;;10.69;89.95
48089;BME280;33867;50.314;7.802;2023-01-04T18:57:27;100568.13;;;10.71;90.40
48089;BME280;33867;50.314;7.802;2023-01-04T19:00:45;100565.56;;;10.69;90.32
48089;BME280;33867;50.314;7.802;2023-01-04T19:04:05;100569.25;;;10.68;91.23
48089;BME280;33867;50.314;7.802;2023-01-04T19:15:11;100558.75;;;10.65;91.34
48089;BME280;33867;50.314;7.802;2023-01-04T19:18:30;100550.13;;;10.71;91.18
48089;BME280;33867;50.314;7.802;2023-01-04T19:21:49;100557.78;;;10.66;91.52
48089;BME280;33867;50.314;7.802;2023-01-04T19:25:08;100552.38;;;10.66;92.21
48089;BME280;33867;50.314;7.802;2023-01-04T19:28:27;100556.03;;;10.65;93.13
48089;BME280;33867;50.314;7.802;2023-01-04T19:31:46;100563.16;;;10.66;92.81
48089;BME280;33867;50.314;7.802;2023-01-04T19:35:06;100572.50;;;10.62;93.19
48089;BME280;33867;50.314;7.802;2023-01-04T19:38:25;100584.09;;;10.63;93.44
48089;BME280;33867;50.314;7.802;2023-01-04T19:41:44;100587.50;;;10.65;93.28
48089;BME280;33867;50.314;7.802;2023-01-04T19:45:04;100586.66;;;10.64;93.71
48089;BME280;33867;50.314;7.802;2023-01-04T19:48:23;100598.28;;;10.65;93.35
48089;BME280;33867;50.314;7.802;2023-01-04T19:51:45;100584.25;;;10.61;93.54
48089;BME280;33867;50.314;7.802;2023-01-04T19:55:05;100573.63;;;10.60;93.73
48089;BME280;33867;50.314;7.802;2023-01-04T19:58:24;100548.53;;;10.59;93.91
48089;BME280;33867;50.314;7.802;2023-01-04T20:01:43;100531.09;;;10.63;93.35
48089;BME280;33867;50.314;7.802;2023-01-04T20:05:02;100544.88;;;10.70;93.31
48089;BME280;33867;50.314;7.802;2023-01-04T20:08:38;100543.88;;;10.71;92.87
48089;BME280;33867;50.314;7.802;2023-01-04T20:12:18;100537.34;;;10.73;93.11
48089;BME280;33867;50.314;7.802;2023-01-04T20:15:38;100537.78;;;10.69;92.78
48089;BME280;33867;50.314;7.802;2023-01-04T20:18:57;100542.03;;;10.71;91.61
48089;BME280;33867;50.314;7.802;2023-01-04T20:22:17;100541.50;;;10.77;90.60
48089;BME280;33867;50.314;7.802;2023-01-04T20:25:40;100532.97;;;10.82;89.83
48089;BME280;33867;50.314;7.802;2023-01-04T20:28:59;100537.94;;;10.87;89.39
48089;BME280;33867;50.314;7.802;2023-01-04T20:32:18;100539.91;;;10.84;88.82
48089;BME280;33867;50.314;7.802;2023-01-04T20:35:43;100538.38;;;10.92;87.10
48089;BME280;33867;50.314;7.802;2023-01-04T20:39:02;100540.50;;;10.98;86.82
48089;BME280;33867;50.314;7.802;2023-01-04T20:42:21;100534.41;;;10.96;86.89
48089;BME280;33867;50.314;7.802;2023-01-04T20:46:00;100545.72;;;10.99;86.85
48089;BME280;33867;50.314;7.802;2023-01-04T20:49:19;100544.47;;;11.03;87.26
48089;BME280;33867;50.314;7.802;2023-01-04T20:52:39;100547.16;;;11.03;86.90
48089;BME280;33867;50.314;7.802;2023-01-04T20:56:04;100556.50;;;11.09;86.88
48089;BME280;33867;50.314;7.802;2023-01-04T20:59:24;100556.38;;;11.10;86.14
48089;BME280;33867;50.314;7.802;2023-01-04T21:02:43;100563.34;;;11.13;86.26
48089;BME280;33867;50.314;7.802;2023-01-04T21:06:06;100562.59;;;11.11;86.33
48089;BME280;33867;50.314;7.802;2023-01-04T21:09:25;100563.19;;;11.15;86.73
48089;BME280;33867;50.314;7.802;2023-01-04T21:12:44;100556.22;;;11.12;85.92
48089;BME280;33867;50.314;7.802;2023-01-04T21:16:04;100552.41;;;11.15;85.56
48089;BME280;33867;50.314;7.802;2023-01-04T21:19:23;100556.38;;;11.20;85.61
48089;BME280;33867;50.314;7.802;2023-01-04T21:22:42;100549.88;;;11.13;85.48
48089;BME280;33867;50.314;7.802;2023-01-04T21:26:05;100553.53;;;11.12;85.47
48089;BME280;33867;50.314;7.802;2023-01-04T21:29:25;100552.97;;;11.08;85.32
48089;BME280;33867;50.314;7.802;2023-01-04T21:32:45;100548.13;;;11.12;85.06
48089;BME280;33867;50.314;7.802;2023-01-04T21:36:22;100543.47;;;11.14;84.65
48089;BME280;33867;50.314;7.802;2023-01-04T21:39:41;100542.19;;;11.18;85.33
48089;BME280;33867;50.314;7.802;2023-01-04T21:43:00;100560.66;;;11.13;85.78
48089;BME280;33867;50.314;7.802;2023-01-04T21:46:20;100552.41;;;11.15;85.87
48089;BME280;33867;50.314;7.802;2023-01-04T21:49:39;100545.19;;;11.15;86.87
48089;BME280;33867;50.314;7.802;2023-01-04T21:53:01;100560.91;;;11.10;87.29
48089;BME280;33867;50.314;7.802;2023-01-04T21:56:22;100554.97;;;11.06;87.86
48089;BME280;33867;50.314;7.802;2023-01-04T21:59:41;100552.69;;;11.02;89.36
48089;BME280;33867;50.314;7.802;2023-01-04T22:03:00;100542.19;;;10.99;90.27
48089;BME280;33867;50.314;7.802;2023-01-04T22:06:19;100542.19;;;10.99;90.77
48089;BME280;33867;50.314;7.802;2023-01-04T22:09:40;100553.53;;;10.93;91.69
48089;BME280;33867;50.314;7.802;2023-01-04T22:12:59;100543.91;;;10.80;92.76
48089;BME280;33867;50.314;7.802;2023-01-04T22:16:18;100539.34;;;10.81;92.51
48089;BME280;33867;50.314;7.802;2023-01-04T22:19:38;100533.97;;;10.81;92.59
48089;BME280;33867;50.314;7.802;2023-01-04T22:22:57;100541.47;;;10.97;91.44
48089;BME280;33867;50.314;7.802;2023-01-04T22:26:16;100537.09;;;10.96;91.68
48089;BME280;33867;50.314;7.802;2023-01-04T22:29:35;100539.09;;;10.94;91.85
48089;BME280;33867;50.314;7.802;2023-01-04T22:32:54;100536.09;;;10.87;92.06
48089;BME280;33867;50.314;7.802;2023-01-04T22:36:15;100533.97;;;10.91;91.22
48089;BME280;33867;50.314;7.802;2023-01-04T22:39:34;100540.78;;;10.95;91.62
48089;BME280;33867;50.314;7.802;2023-01-04T22:42:53;100528.31;;;10.94;90.86
48089;BME280;33867;50.314;7.802;2023-01-04T22:46:16;100522.63;;;10.97;90.99
48089;BME280;33867;50.314;7.802;2023-01-04T22:49:35;100521.63;;;10.98;90.98
48089;BME280;33867;50.314;7.802;2023-01-04T22:52:55;100532.00;;;11.02;90.08
48089;BME280;33867;50.314;7.802;2023-01-04T22:56:16;100526.63;;;11.02;90.06
48089;BME280;33867;50.314;7.802;2023-01-04T22:59:35;100528.00;;;11.06;90.32
48089;BME280;33867;50.314;7.802;2023-01-04T23:02:54;100535.09;;;11.07;90.47
48089;BME280;33867;50.314;7.802;2023-01-04T23:06:13;100533.97;;;11.10;89.89
48089;BME280;33867;50.314;7.802;2023-01-04T23:09:32;100525.47;;;11.15;90.16
48089;BME280;33867;50.314;7.802;2023-01-04T23:12:51;100528.41;;;11.21;89.55
48089;BME280;33867;50.314;7.802;2023-01-04T23:16:13;100527.16;;;11.16;89.82
48089;BME280;33867;50.314;7.802;2023-01-04T23:19:32;100514.25;;;11.19;89.46
48089;BME280;33867;50.314;7.802;2023-01-04T23:22:52;100527.72;;;11.19;89.23
48089;BME280;33867;50.314;7.802;2023-01-04T23:33:26;100510.69;;;11.28;88.77
48089;BME280;33867;50.314;7.802;2023-01-04T23:36:45;100509.00;;;11.27;88.88
48089;BME280;33867;50.314;7.802;2023-01-04T23:40:05;100514.94;;;11.31;88.58
48089;BME280;33867;50.314;7.802;2023-01-04T23:43:24;100514.09;;;11.30;88.20
48089;BME280;33867;50.314;7.802;2023-01-04T23:46:44;100505.69;;;11.33;87.67
48089;BME280;33867;50.314;7.802;2023-01-04T23:50:04;100503.59;;;11.37;88.18
48089;BME280;33867;50.314;7.802;2023-01-04T23:53:23;100506.13;;;11.38;87.46
48089;BME280;33867;50.314;7.802;2023-01-04T23:56:42;100511.94;;;11.43;87.25
